Time;durP1;ratioP1;P1;durP2;ratioP2;P2;SDS_P1;SDS_P2;PMS_P1;PMS_P2;Temp;Humidity;BMP_temperature;BMP_pressure;BME280_temperature;BME280_humidity;BME280_pressure;Samples;Min_cycle;Max_cycle;Signal;HPM_P1;HPM_P2
2022/07/07 00:01:57;;;;;;;1.47;1.10;;;;;;;;;;5031689;28;20709;-62
2022/07/07 00:04:28;;;;;;;1.10;1.00;;;;;;;;;;5032659;28;20274;-63
2022/07/07 00:07:05;;;;;;;2.80;1.30;;;;;;;;;;5031813;28;20718;-62
2022/07/07 00:09:34;;;;;;;1.33;1.20;;;;;;;;;;5034383;28;20708;-62
2022/07/07 00:12:10;;;;;;;1.20;1.10;;;;;;;;;;5037590;28;20211;-63
2022/07/07 00:14:53;;;;;;;1.20;1.10;;;;;;;;;;5015917;28;20242;-63
2022/07/07 00:17:24;;;;;;;1.50;1.00;;;;;;;;;;5030333;28;20269;-62
2022/07/07 00:19:53;;;;;;;1.17;1.03;;;;;;;;;;5024884;28;20272;-62
2022/07/07 00:22:26;;;;;;;1.50;1.33;;;;;;;;;;5034875;28;20211;-63
2022/07/07 00:24:55;;;;;;;2.33;1.10;;;;;;;;;;5006459;28;20202;-63
2022/07/07 00:27:27;;;;;;;1.43;1.13;;;;;;;;;;5028337;28;20237;-62
2022/07/07 00:29:56;;;;;;;2.27;1.30;;;;;;;;;;5035301;28;20227;-62
2022/07/07 00:32:28;;;;;;;1.77;1.37;;;;;;;;;;5033481;28;20241;-63
2022/07/07 00:34:59;;;;;;;1.43;1.20;;;;;;;;;;5013195;28;20294;-63
2022/07/07 00:37:44;;;;;;;2.13;1.60;;;;;;;;;;5024975;28;20258;-63
2022/07/07 00:40:15;;;;;;;1.93;1.20;;;;;;;;;;5013443;28;20230;-63
2022/07/07 00:42:47;;;;;;;1.50;1.37;;;;;;;;;;5016727;28;20238;-62
2022/07/07 00:45:18;;;;;;;2.03;1.50;;;;;;;;;;5010692;28;20211;-63
2022/07/07 00:47:49;;;;;;;2.17;1.30;;;;;;;;;;5016711;28;20745;-62
2022/07/07 00:50:20;;;;;;;2.00;1.43;;;;;;;;;;5004502;28;20664;-63
2022/07/07 00:52:53;;;;;;;2.03;1.30;;;;;;;;;;5025674;28;20306;-63
2022/07/07 00:55:26;;;;;;;1.87;1.50;;;;;;;;;;5008188;28;20184;-63
2022/07/07 00:57:57;;;;;;;1.50;1.40;;;;;;;;;;5007475;28;20212;-62
2022/07/07 01:00:26;;;;;;;2.43;1.50;;;;;;;;;;5021258;28;20254;-62
2022/07/07 01:02:55;;;;;;;1.83;1.50;;;;;;;;;;5018033;28;20199;-63
2022/07/07 01:05:34;;;;;;;1.60;1.50;;;;;;;;;;5018576;28;20206;-62
2022/07/07 01:08:08;;;;;;;2.63;1.70;;;;;;;;;;5013998;28;20278;-63
2022/07/07 01:11:03;;;;;;;1.60;1.30;;;;;;;;;;5010095;28;20695;-62
2022/07/07 01:13:36;;;;;;;2.37;1.40;;;;;;;;;;5015973;28;20195;-62
2022/07/07 01:16:08;;;;;;;1.50;1.40;;;;;;;;;;5010375;28;20322;-62
2022/07/07 01:18:39;;;;;;;3.20;1.60;;;;;;;;;;5018685;28;20706;-62
2022/07/07 01:21:14;;;;;;;2.30;1.93;;;;;;;;;;5004260;28;20649;-63
2022/07/07 01:23:47;;;;;;;2.40;2.20;;;;;;;;;;5015775;28;20250;-63
2022/07/07 01:26:18;;;;;;;2.10;1.90;;;;;;;;;;5008222;28;20208;-62
2022/07/07 01:28:51;;;;;;;2.03;1.83;;;;;;;;;;5021005;28;20270;-62
2022/07/07 01:31:22;;;;;;;3.80;1.90;;;;;;;;;;5015231;28;20194;-63
2022/07/07 01:33:57;;;;;;;2.20;1.67;;;;;;;;;;5012125;28;20211;-62
2022/07/07 01:36:34;;;;;;;2.53;2.07;;;;;;;;;;4992195;28;20206;-62
2022/07/07 01:39:06;;;;;;;3.17;2.10;;;;;;;;;;5030397;28;20226;-62
2022/07/07 01:41:47;;;;;;;2.30;1.93;;;;;;;;;;5047645;28;20639;-62
2022/07/07 01:44:18;;;;;;;1.80;1.60;;;;;;;;;;5037108;28;20201;-62
2022/07/07 01:46:51;;;;;;;2.23;1.83;;;;;;;;;;5019718;28;20203;-62
2022/07/07 01:49:21;;;;;;;2.00;1.70;;;;;;;;;;5019197;28;20607;-62
2022/07/07 01:51:54;;;;;;;2.10;1.90;;;;;;;;;;5046147;28;20214;-63
2022/07/07 01:54:31;;;;;;;4.00;2.33;;;;;;;;;;5034699;28;20207;-62
2022/07/07 01:57:12;;;;;;;2.83;2.13;;;;;;;;;;5030238;28;20195;-62
2022/07/07 01:59:46;;;;;;;5.33;2.50;;;;;;;;;;5035450;28;20222;-62
2022/07/07 02:02:18;;;;;;;2.90;1.80;;;;;;;;;;5031949;28;20214;-62
2022/07/07 02:04:52;;;;;;;2.80;2.10;;;;;;;;;;5016995;28;20704;-63
2022/07/07 02:07:24;;;;;;;2.43;2.00;;;;;;;;;;5017943;28;20226;-63
2022/07/07 02:09:55;;;;;;;3.63;1.90;;;;;;;;;;5032272;28;20247;-63
2022/07/07 02:12:24;;;;;;;1.80;1.70;;;;;;;;;;5029120;28;20210;-62
2022/07/07 02:14:57;;;;;;;2.03;1.93;;;;;;;;;;4995077;28;20211;-63
2022/07/07 02:17:27;;;;;;;2.53;2.20;;;;;;;;;;5026732;28;20202;-63
2022/07/07 02:19:58;;;;;;;2.37;1.90;;;;;;;;;;5029728;28;20265;-63
2022/07/07 02:22:29;;;;;;;3.80;1.93;;;;;;;;;;5031051;28;20230;-62
2022/07/07 02:25:00;;;;;;;3.00;2.30;;;;;;;;;;5032655;28;20184;-62
2022/07/07 02:27:31;;;;;;;3.63;2.33;;;;;;;;;;5044203;28;20213;-62
2022/07/07 02:30:02;;;;;;;2.33;1.83;;;;;;;;;;5037975;28;20222;-63
2022/07/07 02:32:32;;;;;;;2.23;2.00;;;;;;;;;;5037965;28;20202;-62
2022/07/07 02:35:02;;;;;;;2.73;2.00;;;;;;;;;;5030926;28;20206;-62
2022/07/07 02:37:31;;;;;;;5.43;2.20;;;;;;;;;;5028246;28;20241;-62
2022/07/07 02:39:59;;;;;;;3.67;1.97;;;;;;;;;;5033837;28;20207;-62
2022/07/07 02:42:31;;;;;;;3.30;2.20;;;;;;;;;;5027885;28;20203;-63
2022/07/07 02:45:04;;;;;;;3.53;2.00;;;;;;;;;;5027509;28;20219;-62
2022/07/07 02:47:36;;;;;;;3.67;2.13;;;;;;;;;;5029142;28;20202;-62
2022/07/07 02:50:06;;;;;;;1.87;1.50;;;;;;;;;;5036226;28;20599;-62
2022/07/07 02:52:35;;;;;;;3.30;1.97;;;;;;;;;;5032491;28;20203;-62
2022/07/07 02:55:06;;;;;;;2.50;2.00;;;;;;;;;;5030454;28;20195;-62
2022/07/07 02:57:35;;;;;;;2.20;1.80;;;;;;;;;;5002422;28;20216;-63
2022/07/07 03:00:14;;;;;;;3.80;1.80;;;;;;;;;;5018393;28;20191;-62
2022/07/07 03:02:47;;;;;;;2.43;1.73;;;;;;;;;;5028804;28;20269;-62
2022/07/07 03:05:18;;;;;;;2.90;1.80;;;;;;;;;;5030490;28;20219;-62
2022/07/07 03:07:47;;;;;;;4.40;1.77;;;;;;;;;;5039594;28;20228;-63
2022/07/07 03:10:21;;;;;;;4.57;1.80;;;;;;;;;;5018576;28;20223;-62
2022/07/07 03:12:56;;;;;;;2.10;1.90;;;;;;;;;;5024953;28;20273;-62
2022/07/07 03:15:27;;;;;;;3.53;1.93;;;;;;;;;;5030626;28;20203;-62
2022/07/07 03:18:01;;;;;;;5.00;1.83;;;;;;;;;;5040006;28;20689;-62
2022/07/07 03:20:33;;;;;;;2.10;1.70;;;;;;;;;;5035749;28;20207;-63
2022/07/07 03:23:17;;;;;;;2.83;1.50;;;;;;;;;;5016002;28;20667;-62
2022/07/07 03:25:50;;;;;;;2.20;1.77;;;;;;;;;;5010252;28;20230;-63
2022/07/07 03:28:19;;;;;;;2.30;1.83;;;;;;;;;;5011494;28;20207;-62
2022/07/07 03:30:51;;;;;;;2.23;1.50;;;;;;;;;;5031255;28;20358;-62
2022/07/07 03:33:21;;;;;;;2.23;1.87;;;;;;;;;;5018969;28;20194;-62
2022/07/07 03:35:59;;;;;;;2.57;1.60;;;;;;;;;;5026941;28;20207;-62
2022/07/07 03:38:30;;;;;;;2.37;2.17;;;;;;;;;;5026937;28;20313;-62
2022/07/07 03:41:09;;;;;;;1.87;1.70;;;;;;;;;;5026174;28;20221;-62
2022/07/07 03:43:41;;;;;;;2.10;1.70;;;;;;;;;;5026227;28;20211;-62
2022/07/07 03:46:10;;;;;;;2.20;1.90;;;;;;;;;;5035463;28;20656;-63
2022/07/07 03:48:44;;;;;;;2.70;1.77;;;;;;;;;;5037396;28;20257;-62
2022/07/07 03:51:15;;;;;;;2.80;1.90;;;;;;;;;;5032819;28;20204;-63
2022/07/07 03:53:59;;;;;;;3.47;2.23;;;;;;;;;;5026923;28;20199;-62
2022/07/07 03:56:29;;;;;;;4.27;1.93;;;;;;;;;;5035631;28;20208;-64
2022/07/07 03:59:00;;;;;;;1.90;1.70;;;;;;;;;;5023705;28;20221;-63
2022/07/07 04:01:30;;;;;;;2.93;1.73;;;;;;;;;;5031257;28;20603;-64
2022/07/07 04:04:06;;;;;;;1.80;1.40;;;;;;;;;;5029324;28;20201;-64
2022/07/07 04:06:38;;;;;;;2.53;1.50;;;;;;;;;;5029476;28;20203;-64
2022/07/07 04:09:09;;;;;;;3.30;1.40;;;;;;;;;;5025933;28;20203;-64
2022/07/07 04:11:40;;;;;;;2.97;1.37;;;;;;;;;;5027127;28;20259;-64
2022/07/07 04:14:09;;;;;;;1.50;1.17;;;;;;;;;;5028365;28;20565;-64
2022/07/07 04:16:40;;;;;;;1.90;1.33;;;;;;;;;;5029006;28;20210;-64
2022/07/07 04:19:11;;;;;;;1.53;1.20;;;;;;;;;;5019624;28;20237;-64
2022/07/07 04:21:51;;;;;;;3.20;1.33;;;;;;;;;;5024514;28;20566;-64
2022/07/07 04:24:33;;;;;;;1.77;1.23;;;;;;;;;;5011523;28;20201;-64
2022/07/07 04:27:08;;;;;;;2.03;1.20;;;;;;;;;;5023724;28;20205;-64
2022/07/07 04:29:41;;;;;;;1.63;1.20;;;;;;;;;;5027558;28;20313;-64
2022/07/07 04:32:14;;;;;;;3.20;1.10;;;;;;;;;;5022423;28;20264;-65
2022/07/07 04:34:53;;;;;;;1.27;1.10;;;;;;;;;;5021641;28;20210;-65
2022/07/07 04:37:25;;;;;;;1.73;1.13;;;;;;;;;;5024142;28;20190;-64
2022/07/07 04:39:58;;;;;;;1.17;0.90;;;;;;;;;;5017773;28;20249;-64
2022/07/07 04:42:27;;;;;;;1.93;1.07;;;;;;;;;;5032356;28;20214;-63
2022/07/07 04:44:55;;;;;;;1.03;0.90;;;;;;;;;;5015549;28;20222;-64
2022/07/07 04:47:26;;;;;;;2.23;1.20;;;;;;;;;;5028990;28;20218;-64
2022/07/07 04:49:57;;;;;;;1.50;1.20;;;;;;;;;;5032481;28;20222;-64
2022/07/07 04:52:27;;;;;;;5.30;1.33;;;;;;;;;;5033116;28;20230;-62
2022/07/07 04:54:56;;;;;;;1.20;1.03;;;;;;;;;;5028438;28;20199;-62
2022/07/07 04:57:27;;;;;;;3.37;1.00;;;;;;;;;;5023226;28;20187;-64
2022/07/07 04:59:56;;;;;;;1.30;1.10;;;;;;;;;;5013341;28;20203;-64
2022/07/07 05:02:24;;;;;;;1.93;1.30;;;;;;;;;;5033680;28;20199;-62
2022/07/07 05:04:58;;;;;;;2.13;1.30;;;;;;;;;;5014489;28;20194;-62
2022/07/07 05:07:32;;;;;;;2.17;1.33;;;;;;;;;;5030612;28;20190;-62
2022/07/07 05:10:05;;;;;;;1.77;1.10;;;;;;;;;;5035915;28;20684;-61
2022/07/07 05:12:34;;;;;;;1.90;1.07;;;;;;;;;;5033136;28;20698;-61
2022/07/07 05:15:05;;;;;;;2.63;1.00;;;;;;;;;;5035960;28;20183;-61
2022/07/07 05:17:39;;;;;;;1.33;1.23;;;;;;;;;;5030184;28;20620;-62
2022/07/07 05:20:13;;;;;;;2.37;1.50;;;;;;;;;;5031537;28;20206;-61
2022/07/07 05:22:47;;;;;;;1.43;1.20;;;;;;;;;;5026135;28;20214;-61
2022/07/07 05:25:17;;;;;;;1.30;1.00;;;;;;;;;;5027415;28;20605;-62
2022/07/07 05:27:50;;;;;;;1.73;1.20;;;;;;;;;;5034192;28;20203;-62
2022/07/07 05:30:38;;;;;;;1.33;1.00;;;;;;;;;;5032247;28;20301;-61
2022/07/07 05:33:11;;;;;;;2.10;1.10;;;;;;;;;;5028602;28;20230;-61
2022/07/07 05:35:44;;;;;;;1.40;1.10;;;;;;;;;;5032140;28;20203;-61
2022/07/07 05:38:13;;;;;;;1.13;0.93;;;;;;;;;;5031134;28;20687;-62
2022/07/07 05:40:45;;;;;;;1.17;0.87;;;;;;;;;;5030754;28;20195;-62
2022/07/07 05:43:17;;;;;;;1.53;1.03;;;;;;;;;;5030341;28;20195;-62
2022/07/07 05:45:50;;;;;;;1.43;1.00;;;;;;;;;;5026772;28;20221;-64
2022/07/07 05:48:21;;;;;;;2.00;1.07;;;;;;;;;;5027311;28;20214;-64
2022/07/07 05:50:52;;;;;;;1.00;0.80;;;;;;;;;;5030599;28;20222;-64
2022/07/07 05:53:24;;;;;;;1.87;1.10;;;;;;;;;;5031461;28;20651;-64
2022/07/07 05:55:58;;;;;;;2.07;1.10;;;;;;;;;;5009196;28;20254;-64
2022/07/07 05:58:27;;;;;;;1.30;1.00;;;;;;;;;;5027208;28;20207;-64
2022/07/07 06:00:55;;;;;;;1.73;1.13;;;;;;;;;;5022933;28;20203;-64
2022/07/07 06:03:23;;;;;;;2.23;1.00;;;;;;;;;;5026629;28;20537;-64
2022/07/07 06:06:00;;;;;;;2.63;1.17;;;;;;;;;;5043336;28;20222;-62
2022/07/07 06:08:31;;;;;;;1.73;0.90;;;;;;;;;;5047689;28;20207;-62
2022/07/07 06:11:02;;;;;;;2.87;0.97;;;;;;;;;;5023215;28;20227;-62
2022/07/07 06:13:33;;;;;;;1.93;0.97;;;;;;;;;;5041359;28;20600;-62
2022/07/07 06:16:06;;;;;;;2.13;1.20;;;;;;;;;;5031218;28;20183;-62
2022/07/07 06:18:54;;;;;;;3.03;1.40;;;;;;;;;;5042999;28;20194;-62
2022/07/07 06:21:25;;;;;;;2.43;1.10;;;;;;;;;;5006181;28;20211;-65
2022/07/07 06:23:57;;;;;;;5.27;1.50;;;;;;;;;;5046279;28;20938;-64
2022/07/07 06:26:26;;;;;;;1.33;0.90;;;;;;;;;;5040546;28;20211;-65
2022/07/07 06:29:01;;;;;;;3.07;1.30;;;;;;;;;;5011914;28;20188;-64
2022/07/07 06:31:32;;;;;;;3.77;1.27;;;;;;;;;;5040813;28;20214;-62
2022/07/07 06:34:04;;;;;;;3.93;1.20;;;;;;;;;;5035786;28;20218;-64
2022/07/07 06:36:32;;;;;;;4.90;1.70;;;;;;;;;;5016146;28;20202;-63
2022/07/07 06:39:01;;;;;;;4.27;1.93;;;;;;;;;;5011054;28;20246;-63
2022/07/07 06:41:45;;;;;;;4.67;1.83;;;;;;;;;;5033677;28;20197;-63
2022/07/07 06:44:17;;;;;;;4.50;1.83;;;;;;;;;;5032807;28;20215;-63
2022/07/07 06:46:46;;;;;;;5.13;1.73;;;;;;;;;;5039785;28;20199;-63
2022/07/07 06:49:18;;;;;;;3.60;1.30;;;;;;;;;;5034283;28;20216;-63
2022/07/07 06:51:49;;;;;;;3.27;1.33;;;;;;;;;;5020784;28;20261;-63
2022/07/07 06:54:22;;;;;;;7.70;1.97;;;;;;;;;;5038044;28;20205;-63
2022/07/07 06:56:53;;;;;;;4.57;1.50;;;;;;;;;;5032010;28;20264;-62
2022/07/07 06:59:38;;;;;;;6.22;1.30;;;;;;;;;;5025813;28;20189;-68
2022/07/07 07:02:08;;;;;;;3.67;1.50;;;;;;;;;;5034259;28;20199;-70
2022/07/07 07:04:37;;;;;;;5.73;2.00;;;;;;;;;;5041080;28;20273;-68
2022/07/07 07:07:06;;;;;;;6.13;1.40;;;;;;;;;;5030451;28;20198;-69
2022/07/07 07:09:34;;;;;;;7.63;1.93;;;;;;;;;;5031705;28;20238;-67
2022/07/07 07:12:04;;;;;;;5.97;1.80;;;;;;;;;;5042224;28;20225;-65
2022/07/07 07:14:36;;;;;;;6.23;2.20;;;;;;;;;;5034247;28;20206;-66
2022/07/07 07:17:11;;;;;;;9.50;2.50;;;;;;;;;;5029935;28;20686;-68
2022/07/07 07:19:43;;;;;;;8.47;1.73;;;;;;;;;;5023864;28;20192;-66
2022/07/07 07:22:14;;;;;;;7.87;2.00;;;;;;;;;;5032930;28;20264;-68
2022/07/07 07:24:46;;;;;;;5.03;1.80;;;;;;;;;;5030119;28;20187;-68
2022/07/07 07:27:17;;;;;;;8.97;1.80;;;;;;;;;;5011581;28;20696;-66
2022/07/07 07:29:48;;;;;;;5.07;1.40;;;;;;;;;;5014801;28;20739;-63
2022/07/07 07:32:17;;;;;;;4.73;1.40;;;;;;;;;;5033001;28;20222;-67
2022/07/07 07:34:46;;;;;;;2.00;0.97;;;;;;;;;;5036635;28;20210;-68
2022/07/07 07:37:16;;;;;;;3.43;1.07;;;;;;;;;;5018158;28;20199;-67
2022/07/07 07:39:47;;;;;;;4.10;1.47;;;;;;;;;;5029912;28;20627;-68
2022/07/07 07:42:16;;;;;;;3.77;1.57;;;;;;;;;;5030391;28;20667;-66
2022/07/07 07:47:38;;;;;;;2.90;1.13;;;;;;;;;;5033298;28;20288;-68
2022/07/07 07:50:14;;;;;;;3.37;1.17;;;;;;;;;;5011703;28;20643;-66
2022/07/07 07:52:46;;;;;;;7.90;1.60;;;;;;;;;;5014587;28;20276;-66
2022/07/07 07:55:20;;;;;;;4.97;1.80;;;;;;;;;;5019803;28;20206;-67
2022/07/07 07:57:52;;;;;;;4.50;1.50;;;;;;;;;;5017971;28;20202;-67
2022/07/07 08:00:22;;;;;;;4.90;1.63;;;;;;;;;;5019230;28;20225;-70
2022/07/07 08:02:53;;;;;;;6.27;1.83;;;;;;;;;;5027928;28;20250;-68
2022/07/07 08:05:25;;;;;;;4.33;1.53;;;;;;;;;;5025213;28;20202;-67
2022/07/07 08:07:59;;;;;;;5.17;1.50;;;;;;;;;;5034035;28;20225;-66
2022/07/07 08:10:32;;;;;;;5.70;1.33;;;;;;;;;;5028672;28;20234;-66
2022/07/07 08:12:59;;;;;;;3.17;1.00;;;;;;;;;;5032174;28;20225;-67
2022/07/07 08:15:28;;;;;;;3.50;0.97;;;;;;;;;;5032571;28;20676;-65
2022/07/07 08:18:00;;;;;;;2.13;1.07;;;;;;;;;;5036413;28;20219;-68
2022/07/07 08:20:34;;;;;;;2.43;0.97;;;;;;;;;;5032399;28;20191;-67
2022/07/07 08:23:04;;;;;;;2.83;1.10;;;;;;;;;;5007216;28;20244;-66
2022/07/07 08:25:37;;;;;;;3.87;1.00;;;;;;;;;;5013162;28;20195;-68
2022/07/07 08:28:10;;;;;;;3.05;1.00;;;;;;;;;;5031872;28;20887;-63
2022/07/07 08:30:43;;;;;;;2.67;1.00;;;;;;;;;;5033929;28;20205;-63
2022/07/07 08:33:13;;;;;;;2.30;0.87;;;;;;;;;;5027638;28;20280;-63
2022/07/07 08:35:45;;;;;;;3.57;1.20;;;;;;;;;;5015390;28;20194;-63
2022/07/07 08:38:16;;;;;;;2.30;1.00;;;;;;;;;;5012552;28;20223;-63
2022/07/07 08:40:47;;;;;;;4.57;1.30;;;;;;;;;;5031918;28;20218;-63
2022/07/07 08:43:23;;;;;;;3.50;1.33;;;;;;;;;;5009939;28;20600;-63
2022/07/07 08:45:55;;;;;;;4.37;1.40;;;;;;;;;;5009485;28;20238;-63
2022/07/07 08:48:28;;;;;;;4.23;1.17;;;;;;;;;;5025285;28;20183;-63
2022/07/07 08:50:59;;;;;;;3.27;1.37;;;;;;;;;;5027057;28;20299;-63
2022/07/07 08:53:37;;;;;;;3.73;1.40;;;;;;;;;;5044224;28;20678;-64
2022/07/07 08:56:08;;;;;;;3.90;1.50;;;;;;;;;;5029467;28;20203;-64
2022/07/07 08:58:52;;;;;;;3.27;1.30;;;;;;;;;;5039366;28;20315;-63
2022/07/07 09:01:32;;;;;;;3.70;1.00;;;;;;;;;;5030785;28;20195;-62
2022/07/07 09:04:04;;;;;;;3.23;1.27;;;;;;;;;;5034295;28;20214;-63
2022/07/07 09:06:36;;;;;;;5.43;1.20;;;;;;;;;;5016740;28;20234;-63
2022/07/07 09:09:08;;;;;;;2.93;1.10;;;;;;;;;;5030295;28;20270;-63
2022/07/07 09:11:39;;;;;;;3.77;1.00;;;;;;;;;;5035572;28;20215;-63
2022/07/07 09:14:11;;;;;;;1.63;0.70;;;;;;;;;;5031251;28;20203;-63
2022/07/07 09:16:41;;;;;;;2.10;1.17;;;;;;;;;;5033443;28;20250;-63
2022/07/07 09:19:20;;;;;;;2.97;0.90;;;;;;;;;;5024834;28;20203;-63
2022/07/07 09:21:50;;;;;;;2.97;0.80;;;;;;;;;;5026422;28;20242;-63
2022/07/07 09:24:21;;;;;;;4.87;1.20;;;;;;;;;;5042869;28;20583;-64
2022/07/07 09:26:54;;;;;;;3.93;1.23;;;;;;;;;;5019352;28;20195;-64
2022/07/07 09:29:27;;;;;;;2.03;0.97;;;;;;;;;;5013151;28;20184;-63
2022/07/07 09:32:03;;;;;;;3.40;1.10;;;;;;;;;;5031011;28;20222;-64
2022/07/07 09:34:34;;;;;;;3.57;1.10;;;;;;;;;;5009462;28;20199;-63
2022/07/07 09:40:02;;;;;;;2.10;1.17;;;;;;;;;;5031394;28;20251;-63
2022/07/07 09:42:38;;;;;;;2.67;1.30;;;;;;;;;;5009946;28;20202;-63
2022/07/07 09:45:15;;;;;;;6.47;1.97;;;;;;;;;;5013705;28;20357;-65
2022/07/07 09:47:45;;;;;;;82.87;15.67;;;;;;;;;;5037554;28;20186;-63
2022/07/07 09:50:22;;;;;;;61.30;12.43;;;;;;;;;;5028402;28;20199;-63
2022/07/07 09:52:53;;;;;;;42.70;9.93;;;;;;;;;;5031842;28;20420;-63
2022/07/07 09:55:23;;;;;;;44.03;8.33;;;;;;;;;;5026606;28;20187;-64
2022/07/07 09:57:53;;;;;;;25.17;6.77;;;;;;;;;;5037785;28;20213;-64
2022/07/07 10:00:31;;;;;;;15.27;4.60;;;;;;;;;;5040343;28;20194;-64
2022/07/07 10:03:02;;;;;;;15.23;4.20;;;;;;;;;;5026522;28;20205;-64
2022/07/07 10:05:32;;;;;;;11.87;2.67;;;;;;;;;;5029699;28;20211;-64
2022/07/07 10:08:03;;;;;;;6.20;2.67;;;;;;;;;;5048316;28;20209;-64
2022/07/07 10:10:32;;;;;;;6.77;2.53;;;;;;;;;;5041747;28;20218;-64
2022/07/07 10:13:04;;;;;;;6.53;2.10;;;;;;;;;;5025046;28;20227;-64
2022/07/07 10:15:34;;;;;;;4.67;1.73;;;;;;;;;;5041136;28;20202;-63
2022/07/07 10:18:08;;;;;;;4.97;1.60;;;;;;;;;;5030138;28;20195;-63
2022/07/07 10:20:41;;;;;;;3.30;1.73;;;;;;;;;;5027774;28;20226;-64
2022/07/07 10:23:12;;;;;;;5.70;1.90;;;;;;;;;;5009615;28;20235;-64
2022/07/07 10:25:42;;;;;;;4.20;1.40;;;;;;;;;;4995477;28;20190;-64
2022/07/07 10:28:15;;;;;;;3.50;1.20;;;;;;;;;;5032336;28;20713;-64
2022/07/07 10:30:46;;;;;;;4.03;1.40;;;;;;;;;;5039823;28;20205;-63
2022/07/07 10:33:16;;;;;;;3.23;1.27;;;;;;;;;;5024731;28;20234;-63
2022/07/07 10:35:48;;;;;;;3.30;1.50;;;;;;;;;;5022843;28;20219;-63
2022/07/07 10:38:19;;;;;;;2.83;1.03;;;;;;;;;;5027876;28;20778;-63
2022/07/07 10:41:01;;;;;;;4.93;1.20;;;;;;;;;;5026271;28;20300;-63
2022/07/07 10:43:39;;;;;;;5.00;1.03;;;;;;;;;;5024912;28;20226;-62
2022/07/07 10:46:22;;;;;;;2.30;0.97;;;;;;;;;;5011185;28;20246;-63
2022/07/07 10:49:05;;;;;;;4.13;0.93;;;;;;;;;;5035609;28;20619;-63
2022/07/07 10:51:52;;;;;;;3.53;1.10;;;;;;;;;;5004280;28;20230;-64
2022/07/07 10:54:43;;;;;;;2.93;1.10;;;;;;;;;;5008247;28;20199;-64
2022/07/07 10:57:18;;;;;;;2.17;0.90;;;;;;;;;;5005749;28;20222;-63
2022/07/07 11:00:07;;;;;;;2.03;0.73;;;;;;;;;;5028659;28;20198;-63
2022/07/07 11:02:39;;;;;;;3.00;0.93;;;;;;;;;;5008804;28;20240;-63
2022/07/07 11:05:15;;;;;;;2.03;0.80;;;;;;;;;;5032105;28;20204;-63
2022/07/07 11:08:10;;;;;;;1.47;0.70;;;;;;;;;;5046685;28;20285;-64
2022/07/07 11:10:47;;;;;;;1.50;0.87;;;;;;;;;;5027827;28;20211;-64
2022/07/07 11:13:16;;;;;;;1.30;0.80;;;;;;;;;;5039472;28;20218;-64
2022/07/07 11:15:49;;;;;;;3.30;0.80;;;;;;;;;;5043569;28;20182;-63
2022/07/07 11:18:20;;;;;;;3.57;1.00;;;;;;;;;;5040634;28;20778;-63
2022/07/07 11:20:54;;;;;;;1.73;0.80;;;;;;;;;;5045837;28;20205;-62
2022/07/07 11:23:29;;;;;;;3.50;1.23;;;;;;;;;;5017688;28;20210;-62
2022/07/07 11:26:02;;;;;;;2.53;0.97;;;;;;;;;;5042370;28;20203;-62
2022/07/07 11:28:39;;;;;;;1.90;0.73;;;;;;;;;;5036562;28;20208;-62
2022/07/07 11:31:17;;;;;;;1.67;0.97;;;;;;;;;;5024363;28;20191;-63
2022/07/07 11:33:50;;;;;;;2.47;1.00;;;;;;;;;;5032395;28;20238;-63
2022/07/07 11:36:24;;;;;;;1.50;1.07;;;;;;;;;;5040198;28;20205;-64
2022/07/07 11:38:58;;;;;;;1.63;1.00;;;;;;;;;;5042984;28;20246;-64
2022/07/07 11:41:39;;;;;;;3.20;1.10;;;;;;;;;;5024526;28;20203;-63
2022/07/07 11:44:29;;;;;;;2.27;1.10;;;;;;;;;;5017065;28;20674;-63
2022/07/07 11:46:58;;;;;;;1.00;0.77;;;;;;;;;;5034127;28;20218;-64
2022/07/07 11:49:32;;;;;;;3.77;1.10;;;;;;;;;;5033761;28;20273;-64
2022/07/07 11:52:01;;;;;;;3.60;1.10;;;;;;;;;;5035055;28;20579;-62
2022/07/07 11:54:44;;;;;;;2.73;0.87;;;;;;;;;;5032857;28;20251;-62
2022/07/07 11:57:26;;;;;;;2.93;1.50;;;;;;;;;;5025299;28;20205;-62
2022/07/07 12:00:09;;;;;;;4.03;1.10;;;;;;;;;;5030566;28;20198;-62
2022/07/07 12:02:45;;;;;;;1.67;1.00;;;;;;;;;;5034137;28;20190;-63
2022/07/07 12:05:23;;;;;;;2.97;1.00;;;;;;;;;;5038796;28;20550;-63
2022/07/07 12:08:08;;;;;;;3.47;0.97;;;;;;;;;;5026913;28;20201;-63
2022/07/07 12:10:39;;;;;;;1.70;0.80;;;;;;;;;;5036061;28;20288;-63
2022/07/07 12:13:13;;;;;;;3.53;1.20;;;;;;;;;;5044417;28;20210;-63
2022/07/07 12:15:46;;;;;;;4.83;1.30;;;;;;;;;;5033319;28;20274;-64
2022/07/07 12:18:24;;;;;;;2.23;1.20;;;;;;;;;;5036011;28;20191;-64
2022/07/07 12:21:01;;;;;;;2.57;1.20;;;;;;;;;;5020438;28;20289;-63
2022/07/07 12:23:43;;;;;;;2.17;1.40;;;;;;;;;;5037599;28;20223;-63
2022/07/07 12:26:20;;;;;;;3.87;1.40;;;;;;;;;;5029031;28;20203;-63
2022/07/07 12:28:57;;;;;;;2.43;1.20;;;;;;;;;;5040063;28;20224;-63
2022/07/07 12:31:26;;;;;;;4.23;1.60;;;;;;;;;;5042459;28;20582;-63
2022/07/07 12:34:09;;;;;;;3.27;1.33;;;;;;;;;;5039595;28;20248;-63
2022/07/07 12:36:42;;;;;;;2.23;1.20;;;;;;;;;;5020420;28;20198;-64
2022/07/07 12:39:20;;;;;;;2.07;1.10;;;;;;;;;;5030681;28;20222;-64
2022/07/07 12:41:57;;;;;;;2.97;1.40;;;;;;;;;;5028693;28;20207;-64
2022/07/07 12:44:31;;;;;;;3.47;1.53;;;;;;;;;;5038298;28;20190;-64
2022/07/07 12:47:18;;;;;;;3.33;1.40;;;;;;;;;;5033253;28;20210;-64
2022/07/07 12:49:55;;;;;;;2.60;1.40;;;;;;;;;;5046224;28;20201;-64
2022/07/07 12:52:24;;;;;;;2.53;1.50;;;;;;;;;;5032308;28;20218;-62
2022/07/07 12:55:05;;;;;;;4.17;1.60;;;;;;;;;;5027515;28;20668;-62
2022/07/07 12:57:34;;;;;;;3.90;1.70;;;;;;;;;;5021490;28;20693;-63
2022/07/07 13:00:27;;;;;;;3.83;1.70;;;;;;;;;;5031955;28;20210;-62
2022/07/07 13:02:57;;;;;;;2.73;1.60;;;;;;;;;;5016741;28;20203;-63
2022/07/07 13:05:27;;;;;;;5.10;1.67;;;;;;;;;;5018790;28;20199;-62
2022/07/07 13:07:55;;;;;;;7.13;1.63;;;;;;;;;;5014653;28;20192;-62
2022/07/07 13:10:27;;;;;;;5.43;1.60;;;;;;;;;;5020681;28;20211;-62
2022/07/07 13:13:00;;;;;;;4.43;1.87;;;;;;;;;;5034544;28;20722;-62
2022/07/07 13:15:29;;;;;;;5.73;1.57;;;;;;;;;;5029180;28;20651;-62
2022/07/07 13:18:00;;;;;;;5.23;2.17;;;;;;;;;;5020451;28;20199;-63
2022/07/07 13:20:30;;;;;;;2.43;1.20;;;;;;;;;;5032479;28;20286;-63
2022/07/07 13:23:00;;;;;;;5.37;1.50;;;;;;;;;;5029324;28;20214;-63
2022/07/07 13:25:29;;;;;;;4.90;1.60;;;;;;;;;;5029219;28;20230;-63
2022/07/07 13:28:01;;;;;;;2.23;1.10;;;;;;;;;;5033558;28;20207;-62
2022/07/07 13:30:30;;;;;;;2.83;1.40;;;;;;;;;;5028018;28;20191;-63
2022/07/07 13:33:00;;;;;;;5.30;1.40;;;;;;;;;;5000587;28;20214;-63
2022/07/07 13:35:31;;;;;;;3.53;1.33;;;;;;;;;;5010163;28;20265;-63
2022/07/07 13:38:01;;;;;;;2.67;1.40;;;;;;;;;;5031544;28;20254;-63
2022/07/07 13:40:30;;;;;;;3.93;1.23;;;;;;;;;;5013730;28;20298;-64
2022/07/07 13:43:03;;;;;;;2.33;1.27;;;;;;;;;;5035185;28;20233;-64
2022/07/07 13:45:39;;;;;;;3.90;1.30;;;;;;;;;;5033684;28;20219;-63
2022/07/07 13:48:10;;;;;;;4.80;1.30;;;;;;;;;;5036949;28;20203;-63
2022/07/07 13:50:40;;;;;;;6.80;1.73;;;;;;;;;;5007535;28;20207;-63
2022/07/07 13:53:13;;;;;;;4.83;1.40;;;;;;;;;;5008082;28;20215;-63
2022/07/07 13:55:46;;;;;;;5.80;1.40;;;;;;;;;;5009004;28;20188;-62
2022/07/07 13:58:16;;;;;;;4.17;1.60;;;;;;;;;;5025179;28;20229;-63
2022/07/07 14:00:45;;;;;;;5.00;1.50;;;;;;;;;;5028372;28;20225;-62
2022/07/07 14:03:16;;;;;;;4.33;1.57;;;;;;;;;;5016627;28;20586;-62
2022/07/07 14:05:48;;;;;;;6.23;2.00;;;;;;;;;;5029559;28;20198;-63
2022/07/07 14:08:16;;;;;;;5.67;1.70;;;;;;;;;;5027564;28;20233;-62
2022/07/07 14:10:54;;;;;;;5.17;1.73;;;;;;;;;;5010993;28;20215;-64
2022/07/07 14:13:25;;;;;;;4.10;1.67;;;;;;;;;;5026722;28;20268;-64
2022/07/07 14:15:56;;;;;;;8.57;2.10;;;;;;;;;;5029739;28;20202;-64
2022/07/07 14:18:27;;;;;;;6.17;1.90;;;;;;;;;;5029168;28;20199;-64
2022/07/07 14:20:56;;;;;;;4.90;2.00;;;;;;;;;;5032950;28;20832;-62
2022/07/07 14:23:26;;;;;;;8.23;2.00;;;;;;;;;;5022178;28;20218;-63
2022/07/07 14:25:54;;;;;;;5.23;2.30;;;;;;;;;;5038885;28;20203;-63
2022/07/07 14:28:25;;;;;;;4.97;1.90;;;;;;;;;;5035890;28;20194;-62
2022/07/07 14:31:09;;;;;;;6.30;1.80;;;;;;;;;;5022327;28;20195;-64
2022/07/07 14:33:39;;;;;;;7.37;1.83;;;;;;;;;;5033638;28;20320;-64
2022/07/07 14:36:10;;;;;;;6.63;1.80;;;;;;;;;;5029012;28;20198;-64
2022/07/07 14:38:39;;;;;;;5.57;1.73;;;;;;;;;;5016115;28;20226;-64
2022/07/07 14:41:15;;;;;;;6.40;2.23;;;;;;;;;;5035252;28;20223;-64
2022/07/07 14:43:58;;;;;;;6.17;1.93;;;;;;;;;;5042591;28;20644;-64
2022/07/07 14:46:32;;;;;;;5.87;2.13;;;;;;;;;;5037157;28;20572;-64
2022/07/07 14:49:02;;;;;;;4.53;1.70;;;;;;;;;;5011454;28;20194;-64
2022/07/07 14:51:32;;;;;;;7.80;1.80;;;;;;;;;;5026927;28;20593;-62
2022/07/07 14:54:07;;;;;;;7.27;2.10;;;;;;;;;;5033718;28;20223;-62
2022/07/07 14:56:35;;;;;;;6.90;2.23;;;;;;;;;;5018104;28;20190;-62
2022/07/07 14:59:07;;;;;;;9.77;2.30;;;;;;;;;;5027213;28;20207;-62
2022/07/07 15:01:37;;;;;;;8.43;1.90;;;;;;;;;;5009593;28;20210;-63
2022/07/07 15:04:14;;;;;;;8.70;2.20;;;;;;;;;;5016406;28;20202;-63
2022/07/07 15:06:44;;;;;;;9.33;2.80;;;;;;;;;;5028939;28;20520;-64
2022/07/07 15:09:15;;;;;;;10.53;2.63;;;;;;;;;;5027916;28;20199;-63
2022/07/07 15:11:58;;;;;;;9.07;2.70;;;;;;;;;;5031590;28;20195;-63
2022/07/07 15:14:28;;;;;;;8.07;2.77;;;;;;;;;;5017000;28;20587;-63
2022/07/07 15:16:56;;;;;;;8.23;2.90;;;;;;;;;;5028912;28;20223;-63
2022/07/07 15:19:29;;;;;;;9.67;2.87;;;;;;;;;;5033328;28;20497;-62
2022/07/07 15:22:01;;;;;;;11.60;2.97;;;;;;;;;;5031225;28;20211;-62
2022/07/07 15:24:31;;;;;;;8.43;2.80;;;;;;;;;;5028651;28;20191;-62